Time;durP1;ratioP1;P1;durP2;ratioP2;P2;SDS_P1;SDS_P2;PMS_P1;PMS_P2;Temp;Humidity;BMP_temperature;BMP_pressure;BME280_temperature;BME280_humidity;BME280_pressure;Samples;Min_cycle;Max_cycle;Signal;HPM_P1;HPM_P2
2021/06/18 00:02:23;;;;;;;;;;;20.80;68.20;;;;;;5053661;28;1348;-65
2021/06/18 00:04:48;;;;;;;;;;;20.80;68.90;;;;;;5051707;28;1570;-64
2021/06/18 00:07:14;;;;;;;;;;;20.80;68.20;;;;;;5053898;28;1769;-65
2021/06/18 00:09:39;;;;;;;;;;;20.80;68.20;;;;;;5052560;28;1334;-64
2021/06/18 00:12:05;;;;;;;;;;;20.80;68.20;;;;;;5052717;28;1397;-63
2021/06/18 00:14:30;;;;;;;;;;;20.80;68.20;;;;;;5053828;28;1380;-63
2021/06/18 00:16:56;;;;;;;;;;;20.90;68.30;;;;;;5053061;28;1673;-65
2021/06/18 00:19:21;;;;;;;;;;;20.80;68.20;;;;;;5053891;28;1631;-64
2021/06/18 00:21:47;;;;;;;;;;;20.80;68.20;;;;;;5047938;28;1898;-63
2021/06/18 00:24:13;;;;;;;;;;;20.80;68.20;;;;;;5053639;28;1699;-64
2021/06/18 00:26:38;;;;;;;;;;;20.80;68.20;;;;;;5053991;28;1419;-65
2021/06/18 00:29:04;;;;;;;;;;;20.80;69.00;;;;;;5053808;28;1619;-64
2021/06/18 00:31:29;;;;;;;;;;;20.80;68.30;;;;;;5053062;28;1560;-64
2021/06/18 00:33:55;;;;;;;;;;;20.90;68.30;;;;;;5053424;28;1360;-65
2021/06/18 00:36:20;;;;;;;;;;;20.80;68.30;;;;;;5052766;28;1375;-64
2021/06/18 00:38:45;;;;;;;;;;;20.90;68.30;;;;;;5053464;28;1669;-64
2021/06/18 00:41:11;;;;;;;;;;;20.80;68.30;;;;;;5052546;28;1906;-65
2021/06/18 00:43:36;;;;;;;;;;;20.80;68.30;;;;;;5053160;28;1590;-64
2021/06/18 00:46:02;;;;;;;;;;;20.80;68.30;;;;;;5052572;28;1584;-64
2021/06/18 00:48:28;;;;;;;;;;;20.90;68.30;;;;;;5053600;28;1550;-64
2021/06/18 00:50:53;;;;;;;;;;;20.80;68.30;;;;;;5052183;28;1592;-64
2021/06/18 00:53:18;;;;;;;;;;;20.80;68.30;;;;;;5053294;28;1392;-64
2021/06/18 00:55:48;;;;;;;;;;;20.80;68.30;;;;;;5053515;28;1181;-64
2021/06/18 00:58:13;;;;;;;;;;;20.80;69.10;;;;;;5052156;28;1502;-64
2021/06/18 01:00:39;;;;;;;;;;;20.80;68.30;;;;;;5053181;28;1961;-64
2021/06/18 01:03:04;;;;;;;;;;;20.80;68.30;;;;;;5053005;28;1581;-65
2021/06/18 01:05:29;;;;;;;;;;;20.90;68.40;;;;;;5053397;28;1356;-64
2021/06/18 01:07:58;;;;;;;;;;;20.80;68.30;;;;;;5053570;28;1416;-64
2021/06/18 01:10:27;;;;;;;;;;;20.80;68.40;;;;;;5051716;28;1172;-64
2021/06/18 01:12:59;;;;;;;;;;;20.90;68.40;;;;;;5052834;28;1439;-65
2021/06/18 01:15:28;;;;;;;;;;;20.80;68.40;;;;;;5051789;28;1105;-65
2021/06/18 01:17:55;;;;;;;;;;;20.80;68.40;;;;;;5052185;28;1428;-64
2021/06/18 01:20:27;;;;;;;;;;;20.90;68.40;;;;;;5047970;28;1902;-65
2021/06/18 01:22:52;;;;;;;;;;;20.80;68.40;;;;;;5051717;28;1434;-65
2021/06/18 01:25:33;;;;;;;;;;;20.90;68.40;;;;;;5051605;28;1642;-65
2021/06/18 01:28:17;;;;;;;;;;;20.80;68.40;;;;;;5052962;28;1651;-64
2021/06/18 01:30:42;;;;;;;;;;;20.90;68.50;;;;;;5052822;28;1376;-64
2021/06/18 01:33:08;;;;;;;;;;;20.80;68.40;;;;;;5051456;28;1245;-64
2021/06/18 01:35:40;;;;;;;;;;;20.80;68.40;;;;;;5052825;28;1705;-64
2021/06/18 01:38:06;;;;;;;;;;;20.80;68.40;;;;;;5052888;28;1658;-64
2021/06/18 01:40:31;;;;;;;;;;;20.80;68.50;;;;;;5036068;23;1963;-73
2021/06/18 01:42:57;;;;;;;;;;;20.80;68.50;;;;;;5029589;28;1447;-72
2021/06/18 01:45:23;;;;;;;;;;;20.90;68.50;;;;;;5013113;28;1577;-72
2021/06/18 01:47:49;;;;;;;;;;;20.80;68.50;;;;;;5013297;28;1073;-72
2021/06/18 01:50:15;;;;;;;;;;;20.80;68.50;;;;;;5042314;28;1648;-73
2021/06/18 01:52:41;;;;;;;;;;;20.90;68.50;;;;;;5026282;28;1452;-71
2021/06/18 01:55:07;;;;;;;;;;;20.80;68.50;;;;;;5043103;28;1688;-71
2021/06/18 01:57:32;;;;;;;;;;;20.90;68.50;;;;;;5012169;28;1653;-72
2021/06/18 01:59:58;;;;;;;;;;;20.90;68.50;;;;;;5011776;28;1965;-71
2021/06/18 02:02:23;;;;;;;;;;;20.80;68.50;;;;;;5012231;28;1879;-71
2021/06/18 02:04:49;;;;;;;;;;;20.90;68.60;;;;;;4995829;28;1255;-73
2021/06/18 02:07:14;;;;;;;;;;;20.90;68.50;;;;;;4994144;28;1045;-71
2021/06/18 02:09:40;;;;;;;;;;;20.90;68.50;;;;;;5007736;28;1465;-71
2021/06/18 02:12:05;;;;;;;;;;;20.80;68.50;;;;;;5025736;28;1179;-71
2021/06/18 02:14:31;;;;;;;;;;;20.90;68.50;;;;;;5038346;28;1157;-70
2021/06/18 02:16:57;;;;;;;;;;;20.80;68.50;;;;;;4993606;28;1599;-71
2021/06/18 02:19:23;;;;;;;;;;;20.90;68.60;;;;;;4997240;28;1255;-71
2021/06/18 02:21:49;;;;;;;;;;;20.90;68.50;;;;;;5013117;28;1950;-73
2021/06/18 02:24:14;;;;;;;;;;;20.90;68.50;;;;;;5001677;28;1715;-73
2021/06/18 02:26:40;;;;;;;;;;;20.90;68.60;;;;;;5004203;28;1163;-72
2021/06/18 02:29:05;;;;;;;;;;;20.90;69.30;;;;;;5016059;28;1562;-74
2021/06/18 02:31:31;;;;;;;;;;;20.90;68.50;;;;;;5028442;28;1182;-72
2021/06/18 02:33:56;;;;;;;;;;;20.90;68.50;;;;;;4999841;28;1404;-70
2021/06/18 02:36:22;;;;;;;;;;;20.90;68.50;;;;;;5006607;28;1363;-71
2021/06/18 02:38:47;;;;;;;;;;;20.90;68.50;;;;;;5017519;28;1333;-71
2021/06/18 02:41:13;;;;;;;;;;;20.90;68.50;;;;;;4991627;28;1973;-71
2021/06/18 02:43:38;;;;;;;;;;;20.90;68.60;;;;;;5011678;28;1297;-70
2021/06/18 02:46:03;;;;;;;;;;;20.90;68.60;;;;;;5016158;28;1433;-71
2021/06/18 02:48:29;;;;;;;;;;;20.90;68.60;;;;;;5004394;28;847;-71
2021/06/18 02:50:59;;;;;;;;;;;20.90;68.60;;;;;;5017374;28;1186;-71
2021/06/18 02:53:43;;;;;;;;;;;20.90;68.60;;;;;;5016018;28;1139;-71
2021/06/18 02:56:12;;;;;;;;;;;20.90;68.70;;;;;;5017472;28;1091;-71
2021/06/18 02:59:01;;;;;;;;;;;20.90;68.70;;;;;;5048943;28;1389;-71
2021/06/18 03:01:27;;;;;;;;;;;20.90;68.70;;;;;;5017034;28;1966;-73
2021/06/18 03:03:54;;;;;;;;;;;20.90;68.70;;;;;;5032277;28;1317;-71
2021/06/18 03:06:19;;;;;;;;;;;20.90;68.70;;;;;;5016323;28;1159;-73
2021/06/18 03:08:45;;;;;;;;;;;20.90;68.70;;;;;;5049299;28;1275;-72
2021/06/18 03:11:11;;;;;;;;;;;20.90;68.70;;;;;;5015998;28;1099;-73
2021/06/18 03:13:38;;;;;;;;;;;20.90;68.70;;;;;;5015546;28;1138;-73
2021/06/18 03:16:04;;;;;;;;;;;20.90;68.70;;;;;;5002708;28;1193;-73
2021/06/18 03:18:29;;;;;;;;;;;20.90;68.70;;;;;;5017274;28;1066;-72
2021/06/18 03:20:56;;;;;;;;;;;20.90;68.70;;;;;;5009016;28;1962;-72
2021/06/18 03:23:22;;;;;;;;;;;20.90;68.80;;;;;;5002024;28;1143;-72
2021/06/18 03:25:47;;;;;;;;;;;20.90;68.80;;;;;;5014503;28;1068;-72
2021/06/18 03:28:13;;;;;;;;;;;20.90;68.90;;;;;;5015619;28;1067;-72
2021/06/18 03:30:38;;;;;;;;;;;20.90;68.80;;;;;;5016555;28;1214;-72
2021/06/18 03:33:04;;;;;;;;;;;20.90;68.80;;;;;;5015461;28;1167;-73
2021/06/18 03:35:30;;;;;;;;;;;20.90;68.80;;;;;;5015353;28;1147;-72
2021/06/18 03:37:55;;;;;;;;;;;20.90;68.90;;;;;;5016439;28;1107;-72
2021/06/18 03:40:21;;;;;;;;;;;20.90;68.90;;;;;;5014855;28;1879;-72
2021/06/18 03:42:47;;;;;;;;;;;20.90;68.90;;;;;;5014858;28;1178;-73
2021/06/18 03:45:13;;;;;;;;;;;20.90;68.90;;;;;;5014977;28;1118;-72
2021/06/18 03:47:38;;;;;;;;;;;20.90;68.90;;;;;;5031802;28;1209;-72
2021/06/18 03:50:04;;;;;;;;;;;20.90;68.90;;;;;;5015038;28;1291;-72
2021/06/18 03:52:29;;;;;;;;;;;20.90;69.00;;;;;;5015784;28;1083;-72
2021/06/18 03:54:56;;;;;;;;;;;20.90;68.90;;;;;;5014489;28;1115;-72
2021/06/18 03:57:22;;;;;;;;;;;20.90;68.90;;;;;;5014709;28;1119;-72
2021/06/18 03:59:47;;;;;;;;;;;20.90;69.00;;;;;;5014675;28;1283;-72
2021/06/18 04:02:13;;;;;;;;;;;20.90;68.90;;;;;;5014375;28;1949;-72
2021/06/18 04:04:39;;;;;;;;;;;20.90;68.90;;;;;;5014521;28;1044;-72
2021/06/18 04:07:05;;;;;;;;;;;20.90;68.90;;;;;;5014642;28;1162;-72
2021/06/18 04:09:31;;;;;;;;;;;20.90;69.00;;;;;;5014547;28;1356;-73
2021/06/18 04:11:56;;;;;;;;;;;20.90;69.00;;;;;;5015730;28;1103;-72
2021/06/18 04:14:21;;;;;;;;;;;20.90;69.00;;;;;;5012247;28;1203;-72
2021/06/18 04:16:47;;;;;;;;;;;20.90;69.00;;;;;;5004474;28;1029;-72
2021/06/18 04:19:12;;;;;;;;;;;20.90;69.00;;;;;;5014263;28;1282;-72
2021/06/18 04:21:41;;;;;;;;;;;20.90;69.00;;;;;;5000945;28;1899;-72
2021/06/18 04:24:07;;;;;;;;;;;20.90;68.90;;;;;;5001064;28;1076;-72
2021/06/18 04:26:32;;;;;;;;;;;20.90;68.90;;;;;;5004544;28;1069;-72
2021/06/18 04:28:58;;;;;;;;;;;20.90;68.90;;;;;;5030987;28;1340;-72
2021/06/18 04:31:23;;;;;;;;;;;20.90;69.00;;;;;;5016141;28;988;-72
2021/06/18 04:33:49;;;;;;;;;;;20.90;68.90;;;;;;5014484;28;1091;-72
2021/06/18 04:36:14;;;;;;;;;;;20.90;68.90;;;;;;5015365;28;1135;-72
2021/06/18 04:38:40;;;;;;;;;;;20.90;68.90;;;;;;4999750;28;1299;-72
2021/06/18 04:41:05;;;;;;;;;;;20.90;69.00;;;;;;5001858;28;1906;-72
2021/06/18 04:43:30;;;;;;;;;;;20.90;69.00;;;;;;5014869;28;1087;-72
2021/06/18 04:45:56;;;;;;;;;;;20.90;69.00;;;;;;5014278;28;1111;-72
2021/06/18 04:48:21;;;;;;;;;;;20.90;68.90;;;;;;5047459;28;1083;-72
2021/06/18 04:50:47;;;;;;;;;;;20.90;68.90;;;;;;5015976;28;1178;-72
2021/06/18 04:53:12;;;;;;;;;;;20.90;69.00;;;;;;5015413;28;1091;-72
2021/06/18 04:55:38;;;;;;;;;;;20.90;69.00;;;;;;5006692;28;1408;-71
2021/06/18 04:58:03;;;;;;;;;;;20.90;68.90;;;;;;4995622;28;1065;-72
2021/06/18 05:00:29;;;;;;;;;;;20.90;68.80;;;;;;5015094;28;1867;-72
2021/06/18 05:02:54;;;;;;;;;;;20.90;68.80;;;;;;4995601;28;1784;-69
2021/06/18 05:05:20;;;;;;;;;;;20.90;68.80;;;;;;4992377;28;1840;-68
2021/06/18 05:07:45;;;;;;;;;;;20.90;68.80;;;;;;5008908;28;1294;-68
2021/06/18 05:10:11;;;;;;;;;;;20.90;68.80;;;;;;4988867;28;2047;-69
2021/06/18 05:12:36;;;;;;;;;;;20.90;68.90;;;;;;5012706;28;1031;-68
2021/06/18 05:15:02;;;;;;;;;;;20.90;68.90;;;;;;5008088;28;1091;-68
2021/06/18 05:17:28;;;;;;;;;;;20.90;68.90;;;;;;5011307;28;1140;-68
2021/06/18 05:19:53;;;;;;;;;;;20.90;68.90;;;;;;5012293;28;1239;-72
2021/06/18 05:22:19;;;;;;;;;;;20.90;68.90;;;;;;4994611;28;1891;-70
2021/06/18 05:24:44;;;;;;;;;;;20.90;68.90;;;;;;5004046;28;1391;-71
2021/06/18 05:27:10;;;;;;;;;;;20.90;68.90;;;;;;4999966;28;1201;-71
2021/06/18 05:29:36;;;;;;;;;;;20.90;68.80;;;;;;5009647;28;1309;-72
2021/06/18 05:32:01;;;;;;;;;;;20.90;68.90;;;;;;5025757;28;1071;-72
2021/06/18 05:34:27;;;;;;;;;;;20.90;68.90;;;;;;5013588;28;1134;-72
2021/06/18 05:36:52;;;;;;;;;;;20.90;68.80;;;;;;5029150;28;1303;-72
2021/06/18 05:39:18;;;;;;;;;;;20.90;68.80;;;;;;5045902;28;1378;-72
2021/06/18 05:41:43;;;;;;;;;;;20.90;68.80;;;;;;5045505;28;1906;-71
2021/06/18 05:44:08;;;;;;;;;;;20.90;68.80;;;;;;5013086;28;1412;-71
2021/06/18 05:46:34;;;;;;;;;;;20.90;68.80;;;;;;5013320;28;993;-71
2021/06/18 05:49:00;;;;;;;;;;;20.90;68.80;;;;;;5028602;28;1354;-71
2021/06/18 05:51:25;;;;;;;;;;;20.90;68.80;;;;;;5013542;28;1095;-71
2021/06/18 05:53:52;;;;;;;;;;;20.90;68.80;;;;;;5011755;28;1135;-71
2021/06/18 05:56:17;;;;;;;;;;;20.90;68.80;;;;;;5013829;28;1126;-71
2021/06/18 05:58:42;;;;;;;;;;;20.90;68.80;;;;;;5013380;28;1269;-72
2021/06/18 06:01:08;;;;;;;;;;;20.90;68.80;;;;;;5012192;28;1907;-71
2021/06/18 06:03:34;;;;;;;;;;;20.90;68.80;;;;;;5013353;28;1127;-71
2021/06/18 06:05:59;;;;;;;;;;;20.90;68.80;;;;;;5013685;28;1143;-70
2021/06/18 06:08:25;;;;;;;;;;;20.90;68.80;;;;;;5015355;28;1258;-70
2021/06/18 06:10:50;;;;;;;;;;;20.90;68.80;;;;;;5017801;28;1284;-72
2021/06/18 06:13:16;;;;;;;;;;;20.90;68.80;;;;;;5032954;28;1318;-72
2021/06/18 06:15:42;;;;;;;;;;;20.90;68.80;;;;;;5005657;28;1185;-70
2021/06/18 06:18:07;;;;;;;;;;;20.90;68.80;;;;;;4983428;28;1315;-69
2021/06/18 06:20:32;;;;;;;;;;;20.90;68.80;;;;;;4995399;28;1963;-69
2021/06/18 06:22:58;;;;;;;;;;;20.90;68.80;;;;;;4993487;28;1176;-69
2021/06/18 06:25:23;;;;;;;;;;;20.90;68.80;;;;;;5000931;28;1017;-69
2021/06/18 06:27:49;;;;;;;;;;;20.90;68.80;;;;;;5014510;28;1104;-70
2021/06/18 06:30:14;;;;;;;;;;;20.90;68.80;;;;;;5015272;28;1201;-70
2021/06/18 06:32:40;;;;;;;;;;;20.90;68.80;;;;;;5015542;28;1100;-70
2021/06/18 06:35:05;;;;;;;;;;;20.90;68.80;;;;;;5014015;28;969;-71
2021/06/18 06:37:31;;;;;;;;;;;20.90;68.90;;;;;;5015447;28;1119;-70
2021/06/18 06:39:56;;;;;;;;;;;20.90;68.90;;;;;;5014065;28;1293;-71
2021/06/18 06:42:22;;;;;;;;;;;20.90;68.90;;;;;;5016127;28;1950;-71
2021/06/18 06:44:47;;;;;;;;;;;20.90;68.80;;;;;;5015822;28;1080;-70
2021/06/18 06:47:13;;;;;;;;;;;20.90;68.90;;;;;;5014583;28;1155;-71
2021/06/18 06:49:38;;;;;;;;;;;20.90;68.90;;;;;;5015338;28;1269;-71
2021/06/18 06:52:03;;;;;;;;;;;20.90;68.90;;;;;;5047975;28;1122;-74
2021/06/18 06:54:29;;;;;;;;;;;20.90;68.90;;;;;;5016868;28;1091;-73
2021/06/18 06:56:55;;;;;;;;;;;20.90;68.90;;;;;;5017619;28;1198;-73
2021/06/18 06:59:20;;;;;;;;;;;20.90;68.90;;;;;;5050415;28;1568;-73
2021/06/18 07:01:46;;;;;;;;;;;20.90;68.80;;;;;;5017839;28;1898;-72
2021/06/18 07:04:11;;;;;;;;;;;20.90;68.90;;;;;;5007215;28;1064;-73
2021/06/18 07:06:38;;;;;;;;;;;20.90;68.90;;;;;;5013920;28;1128;-73
2021/06/18 07:09:04;;;;;;;;;;;20.90;68.90;;;;;;5010239;28;1278;-73
2021/06/18 07:11:30;;;;;;;;;;;20.90;68.90;;;;;;5017920;28;1187;-73
2021/06/18 07:13:55;;;;;;;;;;;20.90;68.90;;;;;;5007198;28;1186;-72
2021/06/18 07:16:20;;;;;;;;;;;20.90;68.90;;;;;;5003848;28;1300;-72
2021/06/18 07:18:46;;;;;;;;;;;20.90;69.60;;;;;;5008271;28;1272;-72
2021/06/18 07:21:11;;;;;;;;;;;20.90;68.90;;;;;;5006285;28;1903;-73
2021/06/18 07:23:37;;;;;;;;;;;20.90;68.90;;;;;;5002429;28;1068;-72
2021/06/18 07:26:02;;;;;;;;;;;20.90;68.90;;;;;;5012477;28;1143;-72
2021/06/18 07:28:28;;;;;;;;;;;20.90;68.80;;;;;;5007723;28;1139;-72
2021/06/18 07:30:53;;;;;;;;;;;20.90;68.90;;;;;;5016937;28;1194;-72
2021/06/18 07:33:19;;;;;;;;;;;20.90;68.90;;;;;;5016415;28;1111;-72
2021/06/18 07:35:44;;;;;;;;;;;20.90;68.90;;;;;;5016863;28;1190;-72
2021/06/18 07:38:10;;;;;;;;;;;20.90;68.90;;;;;;5016988;28;1087;-72
2021/06/18 07:40:35;;;;;;;;;;;20.90;68.90;;;;;;5015930;28;1964;-73
2021/06/18 07:43:01;;;;;;;;;;;20.90;68.90;;;;;;5014811;28;1123;-73
2021/06/18 07:45:26;;;;;;;;;;;20.90;68.90;;;;;;5013737;28;1166;-74
2021/06/18 07:47:51;;;;;;;;;;;20.90;68.90;;;;;;5015216;28;1192;-73
2021/06/18 07:50:17;;;;;;;;;;;20.90;68.90;;;;;;5013302;28;1283;-74
2021/06/18 07:52:43;;;;;;;;;;;20.90;68.90;;;;;;5013464;28;1076;-74
2021/06/18 07:55:11;;;;;;;;;;;20.90;68.90;;;;;;5013215;28;1275;-74
2021/06/18 07:57:36;;;;;;;;;;;20.90;68.90;;;;;;5010053;28;929;-74
2021/06/18 08:00:05;;;;;;;;;;;20.90;68.90;;;;;;5013221;28;1350;-73
2021/06/18 08:02:31;;;;;;;;;;;20.90;68.90;;;;;;5013800;28;1075;-73
2021/06/18 08:04:56;;;;;;;;;;;20.90;68.80;;;;;;5012821;28;1016;-74
2021/06/18 08:07:22;;;;;;;;;;;20.90;68.80;;;;;;5012147;28;1453;-73
2021/06/18 08:09:48;;;;;;;;;;;20.90;68.90;;;;;;4986724;28;1342;-74
2021/06/18 08:12:13;;;;;;;;;;;20.90;68.90;;;;;;4997625;28;1656;-73
2021/06/18 08:14:39;;;;;;;;;;;20.90;68.70;;;;;;5006378;28;1701;-73
2021/06/18 08:17:04;;;;;;;;;;;20.90;68.90;;;;;;5003592;28;1389;-73
2021/06/18 08:19:30;;;;;;;;;;;20.90;68.80;;;;;;5013469;28;1362;-74
2021/06/18 08:21:55;;;;;;;;;;;20.90;68.70;;;;;;4995773;28;1894;-74
2021/06/18 08:24:20;;;;;;;;;;;20.90;68.80;;;;;;4999087;28;1044;-74
2021/06/18 08:26:46;;;;;;;;;;;20.90;68.80;;;;;;5003079;28;1163;-74
2021/06/18 08:29:11;;;;;;;;;;;20.90;69.50;;;;;;5011718;28;1291;-73
2021/06/18 08:31:37;;;;;;;;;;;20.90;68.80;;;;;;5012621;28;1048;-74
2021/06/18 08:34:02;;;;;;;;;;;20.90;68.80;;;;;;5009825;28;1313;-74
2021/06/18 08:36:28;;;;;;;;;;;20.90;68.80;;;;;;5006689;28;906;-74
2021/06/18 08:38:53;;;;;;;;;;;20.90;68.80;;;;;;5013988;28;1288;-74
2021/06/18 08:41:18;;;;;;;;;;;20.90;68.80;;;;;;5013621;28;1903;-73
2021/06/18 08:43:45;;;;;;;;;;;20.90;68.80;;;;;;5012623;28;1465;-75
2021/06/18 08:46:10;;;;;;;;;;;20.90;68.70;;;;;;5045667;28;1363;-74
2021/06/18 08:48:36;;;;;;;;;;;20.90;68.80;;;;;;5012314;28;1091;-74
2021/06/18 08:51:01;;;;;;;;;;;20.90;68.80;;;;;;5005403;28;1526;-74
2021/06/18 08:53:27;;;;;;;;;;;20.90;68.70;;;;;;5008416;28;1131;-73
2021/06/18 08:55:54;;;;;;;;;;;20.90;68.70;;;;;;5012375;28;1083;-73
2021/06/18 08:58:19;;;;;;;;;;;20.90;68.70;;;;;;5012503;28;1162;-74
2021/06/18 09:00:45;;;;;;;;;;;20.90;68.70;;;;;;5012356;28;1989;-75
2021/06/18 09:03:29;;;;;;;;;;;20.90;68.70;;;;;;5045068;28;1526;-74
2021/06/18 09:05:54;;;;;;;;;;;21.00;68.80;;;;;;5013636;28;1119;-74
2021/06/18 09:08:20;;;;;;;;;;;20.90;68.70;;;;;;5028555;28;1461;-74
2021/06/18 09:10:45;;;;;;;;;;;20.90;68.50;;;;;;5013478;28;1228;-74
2021/06/18 09:13:21;;;;;;;;;;;21.00;68.70;;;;;;5009627;28;1424;-74
2021/06/18 09:15:50;;;;;;;;;;;20.90;68.70;;;;;;5024184;28;1373;-74
2021/06/18 09:18:25;;;;;;;;;;;20.90;68.50;;;;;;5045183;28;1596;-74
2021/06/18 09:20:50;;;;;;;;;;;20.90;68.60;;;;;;5008213;28;1906;-75
2021/06/18 09:23:20;;;;;;;;;;;20.90;68.60;;;;;;5006857;28;1194;-74
2021/06/18 09:25:45;;;;;;;;;;;20.90;68.60;;;;;;4995610;28;1419;-74
2021/06/18 09:28:11;;;;;;;;;;;20.90;68.60;;;;;;5013530;28;1315;-74
2021/06/18 09:30:36;;;;;;;;;;;20.90;68.60;;;;;;5010207;28;1512;-73
2021/06/18 09:33:07;;;;;;;;;;;20.90;68.60;;;;;;5006962;28;1715;-73
2021/06/18 09:35:33;;;;;;;;;;;20.90;68.60;;;;;;5011643;28;1522;-73
2021/06/18 09:37:59;;;;;;;;;;;20.90;68.60;;;;;;5012082;28;1075;-73
2021/06/18 09:40:24;;;;;;;;;;;20.90;68.60;;;;;;5012544;28;1906;-73
2021/06/18 09:43:11;;;;;;;;;;;20.90;68.60;;;;;;5011491;28;1143;-73
2021/06/18 09:45:37;;;;;;;;;;;21.00;68.60;;;;;;5011598;28;1072;-72
2021/06/18 09:48:06;;;;;;;;;;;20.90;67.80;;;;;;5011834;28;1171;-74
2021/06/18 09:50:32;;;;;;;;;;;20.90;68.40;;;;;;5005191;28;1367;-74
2021/06/18 09:53:10;;;;;;;;;;;21.00;68.50;;;;;;5012953;28;1122;-74
2021/06/18 09:55:35;;;;;;;;;;;20.90;68.30;;;;;;5012574;28;1083;-74
2021/06/18 09:58:01;;;;;;;;;;;20.90;68.40;;;;;;5028004;28;1150;-74
2021/06/18 10:00:27;;;;;;;;;;;21.00;68.50;;;;;;5005613;28;1964;-74
2021/06/18 10:02:53;;;;;;;;;;;21.00;68.50;;;;;;5006667;28;1259;-73
2021/06/18 10:05:19;;;;;;;;;;;21.00;68.50;;;;;;5011858;28;1352;-74
2021/06/18 10:07:44;;;;;;;;;;;21.00;68.50;;;;;;5011559;28;1091;-74
2021/06/18 10:10:11;;;;;;;;;;;21.00;68.50;;;;;;5027057;28;1314;-74
2021/06/18 10:12:37;;;;;;;;;;;21.00;68.70;;;;;;5011356;28;1079;-74
2021/06/18 10:15:06;;;;;;;;;;;21.00;68.60;;;;;;5004089;28;1194;-74
2021/06/18 10:17:36;;;;;;;;;;;21.00;68.60;;;;;;5005857;28;1077;-74
2021/06/18 10:20:02;;;;;;;;;;;21.00;68.50;;;;;;5012017;28;1206;-74
2021/06/18 10:22:28;;;;;;;;;;;21.00;68.60;;;;;;4994438;28;1898;-74
2021/06/18 10:24:54;;;;;;;;;;;21.00;68.60;;;;;;4994959;28;1067;-74
2021/06/18 10:27:21;;;;;;;;;;;21.00;68.60;;;;;;5007878;28;1084;-74
2021/06/18 10:29:46;;;;;;;;;;;21.00;68.50;;;;;;5011584;28;1224;-74
2021/06/18 10:32:27;;;;;;;;;;;21.00;68.60;;;;;;5011058;28;1206;-74
2021/06/18 10:34:53;;;;;;;;;;;21.00;68.40;;;;;;5012412;28;1147;-74
2021/06/18 10:37:19;;;;;;;;;;;21.00;68.40;;;;;;5011965;28;1151;-74
2021/06/18 10:39:49;;;;;;;;;;;21.00;68.50;;;;;;5011500;28;1289;-74
2021/06/18 10:42:16;;;;;;;;;;;21.00;68.50;;;;;;5012389;28;1978;-74
2021/06/18 10:44:42;;;;;;;;;;;21.00;68.40;;;;;;5011872;28;1106;-74
2021/06/18 10:47:23;;;;;;;;;;;21.00;68.50;;;;;;5012485;28;1226;-73
2021/06/18 10:49:51;;;;;;;;;;;21.00;68.40;;;;;;5012039;28;1346;-73
2021/06/18 10:52:17;;;;;;;;;;;21.00;69.20;;;;;;5011327;28;1075;-74
2021/06/18 10:54:50;;;;;;;;;;;21.00;68.50;;;;;;5014971;28;1123;-73
2021/06/18 10:57:25;;;;;;;;;;;21.00;69.00;;;;;;5015961;28;1067;-74
2021/06/18 10:59:51;;;;;;;;;;;21.00;68.80;;;;;;5015606;28;1269;-74
2021/06/18 11:02:20;;;;;;;;;;;21.00;68.70;;;;;;5014427;28;1898;-74
2021/06/18 11:04:45;;;;;;;;;;;21.00;68.70;;;;;;5015316;28;1036;-74
2021/06/18 11:07:27;;;;;;;;;;;21.00;68.70;;;;;;5016081;28;1103;-73
2021/06/18 11:10:09;;;;;;;;;;;21.00;68.70;;;;;;5014427;28;1334;-74
2021/06/18 11:12:35;;;;;;;;;;;21.00;68.70;;;;;;5015393;28;1181;-74
2021/06/18 11:15:02;;;;;;;;;;;21.00;68.60;;;;;;4999356;28;2034;-74
2021/06/18 11:17:49;;;;;;;;;;;21.00;68.60;;;;;;5003484;28;1100;-74
2021/06/18 11:20:15;;;;;;;;;;;21.00;68.60;;;;;;5000242;28;2022;-73
2021/06/18 11:22:48;;;;;;;;;;;21.00;68.60;;;;;;5010884;28;1060;-74
2021/06/18 11:25:33;;;;;;;;;;;21.00;68.60;;;;;;5028276;28;1075;-73
2021/06/18 11:28:17;;;;;;;;;;;21.00;68.60;;;;;;5015412;28;1071;-74
2021/06/18 11:30:48;;;;;;;;;;;21.00;68.60;;;;;;5014767;28;1216;-73
2021/06/18 11:33:14;;;;;;;;;;;21.00;68.60;;;;;;5015038;28;1138;-73
2021/06/18 11:35:39;;;;;;;;;;;21.00;68.60;;;;;;5043710;28;1051;-73
2021/06/18 11:38:13;;;;;;;;;;;21.00;68.60;;;;;;5014035;28;1115;-73
2021/06/18 11:40:39;;;;;;;;;;;21.00;68.60;;;;;;5013386;28;1973;-74
2021/06/18 11:43:04;;;;;;;;;;;21.00;68.50;;;;;;5013718;28;1131;-74
2021/06/18 11:45:40;;;;;;;;;;;21.00;68.60;;;;;;5014986;28;1159;-73
2021/06/18 11:48:13;;;;;;;;;;;21.00;68.50;;;;;;5014812;28;1127;-74
2021/06/18 11:50:38;;;;;;;;;;;21.00;68.50;;;;;;5046468;28;1294;-74
2021/06/18 11:53:03;;;;;;;;;;;21.00;68.50;;;;;;5014689;28;1032;-73
2021/06/18 11:55:29;;;;;;;;;;;21.00;68.50;;;;;;5013639;28;1167;-73
2021/06/18 11:57:55;;;;;;;;;;;21.00;68.50;;;;;;5014674;28;1032;-74
2021/06/18 12:00:29;;;;;;;;;;;21.00;68.50;;;;;;5013482;28;1951;-74
2021/06/18 12:02:56;;;;;;;;;;;21.00;68.50;;;;;;5014239;28;1135;-74
2021/06/18 12:05:22;;;;;;;;;;;21.00;68.60;;;;;;5014749;28;1028;-74
2021/06/18 12:07:47;;;;;;;;;;;21.00;68.50;;;;;;5014304;28;1055;-73
2021/06/18 12:10:21;;;;;;;;;;;21.00;68.50;;;;;;5014589;28;1332;-73
2021/06/18 12:12:46;;;;;;;;;;;21.00;68.60;;;;;;5013081;28;1130;-73
2021/06/18 12:15:18;;;;;;;;;;;21.00;68.50;;;;;;5004321;28;1193;-73
2021/06/18 12:17:50;;;;;;;;;;;21.00;68.50;;;;;;5009287;28;1113;-73
2021/06/18 12:20:26;;;;;;;;;;;21.00;68.50;;;;;;5010363;28;1962;-73
2021/06/18 12:22:51;;;;;;;;;;;21.00;68.50;;;;;;5009469;28;1123;-73
2021/06/18 12:25:17;;;;;;;;;;;21.00;68.60;;;;;;4998642;28;1239;-73
2021/06/18 12:27:42;;;;;;;;;;;21.00;68.60;;;;;;5012689;28;1174;-73
2021/06/18 12:30:12;;;;;;;;;;;21.00;68.50;;;;;;5012809;28;1227;-73
2021/06/18 12:32:38;;;;;;;;;;;21.00;68.40;;;;;;5012941;28;1094;-73
2021/06/18 12:35:07;;;;;;;;;;;21.00;68.50;;;;;;5045636;28;1110;-72
2021/06/18 12:37:34;;;;;;;;;;;21.00;68.50;;;;;;5004803;28;2021;-73
2021/06/18 12:40:01;;;;;;;;;;;21.00;68.40;;;;;;5004559;28;1305;-72
2021/06/18 12:42:28;;;;;;;;;;;21.00;68.30;;;;;;4998017;28;2305;-72
2021/06/18 12:45:06;;;;;;;;;;;21.00;68.20;;;;;;5010314;28;1084;-72
2021/06/18 12:47:31;;;;;;;;;;;21.00;68.20;;;;;;5013763;28;1087;-72
2021/06/18 12:49:56;;;;;;;;;;;21.00;68.30;;;;;;5013574;28;1316;-72
2021/06/18 12:52:22;;;;;;;;;;;21.00;68.40;;;;;;5013846;28;1178;-72
2021/06/18 12:54:47;;;;;;;;;;;21.00;68.20;;;;;;5013097;28;1557;-73
2021/06/18 12:57:25;;;;;;;;;;;21.00;68.10;;;;;;5013955;28;1067;-72
2021/06/18 12:59:59;;;;;;;;;;;21.00;68.20;;;;;;5045065;28;1382;-72
2021/06/18 13:02:34;;;;;;;;;;;21.00;68.20;;;;;;5013687;28;1898;-72
2021/06/18 13:05:10;;;;;;;;;;;21.00;68.20;;;;;;5045036;28;1217;-72
2021/06/18 13:07:35;;;;;;;;;;;21.00;68.00;;;;;;5012378;28;1130;-73
2021/06/18 13:10:01;;;;;;;;;;;21.00;68.00;;;;;;5012075;28;1238;-73
2021/06/18 13:12:26;;;;;;;;;;;21.00;68.10;;;;;;5012220;28;1123;-72
2021/06/18 13:14:52;;;;;;;;;;;21.00;68.10;;;;;;5007284;28;1179;-72
2021/06/18 13:17:17;;;;;;;;;;;21.00;68.10;;;;;;5005544;28;1111;-73
2021/06/18 13:19:50;;;;;;;;;;;21.00;68.10;;;;;;5013085;28;1390;-73
2021/06/18 13:22:21;;;;;;;;;;;21.00;68.20;;;;;;4994115;28;1910;-72
2021/06/18 13:24:53;;;;;;;;;;;21.00;68.10;;;;;;4996673;28;1158;-72
2021/06/18 13:27:19;;;;;;;;;;;21.00;68.10;;;;;;5025897;28;1245;-72
2021/06/18 13:29:51;;;;;;;;;;;21.00;68.10;;;;;;5013316;28;1304;-73
2021/06/18 13:32:17;;;;;;;;;;;21.00;68.90;;;;;;5011567;28;1099;-73
2021/06/18 13:34:43;;;;;;;;;;;21.00;68.00;;;;;;5012946;28;1052;-73
2021/06/18 13:37:08;;;;;;;;;;;21.00;68.10;;;;;;5011717;28;1154;-71
2021/06/18 13:39:40;;;;;;;;;;;21.00;68.20;;;;;;5012441;28;1279;-74
2021/06/18 13:42:06;;;;;;;;;;;21.00;68.00;;;;;;5011585;28;1906;-74
2021/06/18 13:44:32;;;;;;;;;;;21.00;68.10;;;;;;5012850;28;1071;-73
2021/06/18 13:46:57;;;;;;;;;;;21.00;68.10;;;;;;5011427;28;1235;-72
2021/06/18 13:49:23;;;;;;;;;;;21.00;68.10;;;;;;5013011;28;1288;-71
2021/06/18 13:51:48;;;;;;;;;;;21.00;68.10;;;;;;5011700;28;1087;-72
2021/06/18 13:54:13;;;;;;;;;;;21.00;67.90;;;;;;5012563;28;1068;-71
2021/06/18 13:56:39;;;;;;;;;;;21.00;67.90;;;;;;5011593;28;1174;-71
2021/06/18 13:59:14;;;;;;;;;;;21.00;67.90;;;;;;5011485;28;1338;-72
2021/06/18 14:01:40;;;;;;;;;;;21.00;67.90;;;;;;5011579;28;1959;-72
2021/06/18 14:04:06;;;;;;;;;;;21.00;67.80;;;;;;4995344;28;2300;-67
2021/06/18 14:06:32;;;;;;;;;;;21.10;67.80;;;;;;4992975;28;1108;-69
2021/06/18 14:08:57;;;;;;;;;;;21.00;67.70;;;;;;5010075;28;1273;-68
2021/06/18 14:11:24;;;;;;;;;;;21.10;67.70;;;;;;5011784;28;1103;-68
2021/06/18 14:13:52;;;;;;;;;;;21.00;67.80;;;;;;5010152;28;1162;-70
2021/06/18 14:16:18;;;;;;;;;;;21.00;67.70;;;;;;4998344;28;1165;-70
2021/06/18 14:18:43;;;;;;;;;;;21.00;67.70;;;;;;5010671;28;1302;-67
2021/06/18 14:21:09;;;;;;;;;;;21.00;67.70;;;;;;5001419;28;1957;-70
2021/06/18 14:23:34;;;;;;;;;;;21.10;67.70;;;;;;4996970;28;1069;-68
2021/06/18 14:26:00;;;;;;;;;;;21.00;67.50;;;;;;4991344;28;1100;-68
2021/06/18 14:28:25;;;;;;;;;;;21.10;67.60;;;;;;5004049;28;1167;-72
2021/06/18 14:30:51;;;;;;;;;;;21.00;67.60;;;;;;5016167;28;1257;-72